sensor_id;sensor_type;location;lat;lon;timestamp;P1;durP1;ratioP1;P2;durP2;ratioP2
6101;SDS011;3081;50.584;7.032;2023-03-01T00:00:12;12.30;;;5.73;;
6101;SDS011;3081;50.584;7.032;2023-03-01T00:02:40;18.13;;;6.23;;
6101;SDS011;3081;50.584;7.032;2023-03-01T00:05:08;12.40;;;5.70;;
6101;SDS011;3081;50.584;7.032;2023-03-01T00:07:35;15.23;;;6.73;;
6101;SDS011;3081;50.584;7.032;2023-03-01T00:10:02;10.10;;;5.23;;
6101;SDS011;3081;50.584;7.032;2023-03-01T00:12:30;10.17;;;4.73;;
6101;SDS011;3081;50.584;7.032;2023-03-01T00:14:57;12.23;;;5.23;;
6101;SDS011;3081;50.584;7.032;2023-03-01T00:17:24;12.27;;;5.30;;
6101;SDS011;3081;50.584;7.032;2023-03-01T00:19:51;10.87;;;5.37;;
6101;SDS011;3081;50.584;7.032;2023-03-01T00:22:19;12.10;;;6.53;;
6101;SDS011;3081;50.584;7.032;2023-03-01T00:24:46;18.53;;;7.30;;
6101;SDS011;3081;50.584;7.032;2023-03-01T00:27:13;13.37;;;5.70;;
6101;SDS011;3081;50.584;7.032;2023-03-01T00:29:40;11.27;;;5.50;;
6101;SDS011;3081;50.584;7.032;2023-03-01T00:32:07;11.67;;;5.87;;
6101;SDS011;3081;50.584;7.032;2023-03-01T00:34:34;11.50;;;5.70;;
6101;SDS011;3081;50.584;7.032;2023-03-01T00:37:01;9.50;;;3.83;;
6101;SDS011;3081;50.584;7.032;2023-03-01T00:39:31;17.43;;;5.73;;
6101;SDS011;3081;50.584;7.032;2023-03-01T00:41:58;11.20;;;5.57;;
6101;SDS011;3081;50.584;7.032;2023-03-01T00:44:25;13.77;;;6.43;;
6101;SDS011;3081;50.584;7.032;2023-03-01T00:46:53;11.23;;;5.70;;
6101;SDS011;3081;50.584;7.032;2023-03-01T00:49:20;13.67;;;6.07;;
6101;SDS011;3081;50.584;7.032;2023-03-01T00:51:49;11.70;;;6.00;;
6101;SDS011;3081;50.584;7.032;2023-03-01T00:54:16;11.70;;;5.30;;
6101;SDS011;3081;50.584;7.032;2023-03-01T00:56:44;11.90;;;5.90;;
6101;SDS011;3081;50.584;7.032;2023-03-01T00:59:11;12.07;;;5.60;;
6101;SDS011;3081;50.584;7.032;2023-03-01T01:01:38;16.80;;;6.70;;
6101;SDS011;3081;50.584;7.032;2023-03-01T01:04:06;13.67;;;6.13;;
6101;SDS011;3081;50.584;7.032;2023-03-01T01:06:34;10.57;;;4.90;;
6101;SDS011;3081;50.584;7.032;2023-03-01T01:09:03;10.67;;;4.80;;
6101;SDS011;3081;50.584;7.032;2023-03-01T01:11:31;11.87;;;5.73;;
6101;SDS011;3081;50.584;7.032;2023-03-01T01:14:01;11.50;;;5.90;;
6101;SDS011;3081;50.584;7.032;2023-03-01T01:16:29;10.50;;;5.50;;
6101;SDS011;3081;50.584;7.032;2023-03-01T01:18:56;10.40;;;5.20;;
6101;SDS011;3081;50.584;7.032;2023-03-01T01:21:23;10.60;;;5.57;;
6101;SDS011;3081;50.584;7.032;2023-03-01T01:23:51;11.43;;;5.27;;
6101;SDS011;3081;50.584;7.032;2023-03-01T01:26:19;12.77;;;6.20;;
6101;SDS011;3081;50.584;7.032;2023-03-01T01:28:47;11.53;;;5.37;;
6101;SDS011;3081;50.584;7.032;2023-03-01T01:31:16;12.37;;;6.20;;
6101;SDS011;3081;50.584;7.032;2023-03-01T01:33:44;10.30;;;5.00;;
6101;SDS011;3081;50.584;7.032;2023-03-01T01:36:11;13.53;;;5.70;;
6101;SDS011;3081;50.584;7.032;2023-03-01T01:38:38;12.53;;;5.80;;
6101;SDS011;3081;50.584;7.032;2023-03-01T01:41:08;13.30;;;6.67;;
6101;SDS011;3081;50.584;7.032;2023-03-01T01:43:37;10.97;;;4.97;;
6101;SDS011;3081;50.584;7.032;2023-03-01T01:46:10;10.03;;;5.33;;
6101;SDS011;3081;50.584;7.032;2023-03-01T01:48:48;12.00;;;5.80;;
6101;SDS011;3081;50.584;7.032;2023-03-01T01:51:24;14.50;;;6.07;;
6101;SDS011;3081;50.584;7.032;2023-03-01T01:53:54;13.27;;;6.50;;
6101;SDS011;3081;50.584;7.032;2023-03-01T01:56:25;11.40;;;5.43;;
6101;SDS011;3081;50.584;7.032;2023-03-01T01:58:55;12.90;;;6.87;;
6101;SDS011;3081;50.584;7.032;2023-03-01T02:01:23;15.23;;;6.80;;
6101;SDS011;3081;50.584;7.032;2023-03-01T02:03:51;13.87;;;5.90;;
6101;SDS011;3081;50.584;7.032;2023-03-01T02:06:19;10.97;;;5.03;;
6101;SDS011;3081;50.584;7.032;2023-03-01T02:08:56;17.57;;;6.10;;
6101;SDS011;3081;50.584;7.032;2023-03-01T02:11:26;12.53;;;6.37;;
6101;SDS011;3081;50.584;7.032;2023-03-01T02:13:55;13.10;;;6.30;;
6101;SDS011;3081;50.584;7.032;2023-03-01T02:16:23;12.07;;;5.47;;
6101;SDS011;3081;50.584;7.032;2023-03-01T02:18:52;12.30;;;6.23;;
6101;SDS011;3081;50.584;7.032;2023-03-01T02:21:23;11.17;;;5.83;;
6101;SDS011;3081;50.584;7.032;2023-03-01T02:23:57;12.27;;;5.83;;
6101;SDS011;3081;50.584;7.032;2023-03-01T02:26:29;11.50;;;5.23;;
6101;SDS011;3081;50.584;7.032;2023-03-01T02:29:04;13.00;;;6.87;;
6101;SDS011;3081;50.584;7.032;2023-03-01T02:31:31;11.80;;;6.10;;
6101;SDS011;3081;50.584;7.032;2023-03-01T02:34:08;11.30;;;5.60;;
6101;SDS011;3081;50.584;7.032;2023-03-01T02:36:39;10.80;;;6.00;;
6101;SDS011;3081;50.584;7.032;2023-03-01T02:39:08;12.10;;;5.63;;
6101;SDS011;3081;50.584;7.032;2023-03-01T02:41:44;13.33;;;6.20;;
6101;SDS011;3081;50.584;7.032;2023-03-01T02:44:16;14.00;;;5.33;;
6101;SDS011;3081;50.584;7.032;2023-03-01T02:46:44;10.80;;;5.30;;
6101;SDS011;3081;50.584;7.032;2023-03-01T02:49:19;11.03;;;5.40;;
6101;SDS011;3081;50.584;7.032;2023-03-01T02:51:54;9.93;;;4.93;;
6101;SDS011;3081;50.584;7.032;2023-03-01T02:54:31;11.40;;;4.50;;
6101;SDS011;3081;50.584;7.032;2023-03-01T02:57:04;12.30;;;6.00;;
6101;SDS011;3081;50.584;7.032;2023-03-01T02:59:34;13.60;;;5.47;;
6101;SDS011;3081;50.584;7.032;2023-03-01T03:02:04;10.97;;;5.67;;
6101;SDS011;3081;50.584;7.032;2023-03-01T03:04:31;14.20;;;5.63;;
6101;SDS011;3081;50.584;7.032;2023-03-01T03:06:58;11.40;;;5.50;;
6101;SDS011;3081;50.584;7.032;2023-03-01T03:09:25;13.03;;;5.70;;
6101;SDS011;3081;50.584;7.032;2023-03-01T03:11:52;9.70;;;5.10;;
6101;SDS011;3081;50.584;7.032;2023-03-01T03:14:19;12.10;;;5.90;;
6101;SDS011;3081;50.584;7.032;2023-03-01T03:16:48;13.33;;;6.00;;
6101;SDS011;3081;50.584;7.032;2023-03-01T03:19:16;10.30;;;5.03;;
6101;SDS011;3081;50.584;7.032;2023-03-01T03:21:43;10.33;;;4.97;;
6101;SDS011;3081;50.584;7.032;2023-03-01T03:24:10;10.60;;;5.50;;
6101;SDS011;3081;50.584;7.032;2023-03-01T03:26:37;12.70;;;6.03;;
6101;SDS011;3081;50.584;7.032;2023-03-01T03:29:04;14.50;;;5.97;;
6101;SDS011;3081;50.584;7.032;2023-03-01T03:31:31;11.93;;;5.90;;
6101;SDS011;3081;50.584;7.032;2023-03-01T03:34:00;8.93;;;4.63;;
6101;SDS011;3081;50.584;7.032;2023-03-01T03:36:26;13.60;;;5.40;;
6101;SDS011;3081;50.584;7.032;2023-03-01T03:38:53;11.13;;;5.57;;
6101;SDS011;3081;50.584;7.032;2023-03-01T03:41:20;11.43;;;5.50;;
6101;SDS011;3081;50.584;7.032;2023-03-01T03:43:47;17.40;;;6.93;;
6101;SDS011;3081;50.584;7.032;2023-03-01T03:46:14;12.63;;;6.30;;
6101;SDS011;3081;50.584;7.032;2023-03-01T03:48:43;11.10;;;3.90;;
6101;SDS011;3081;50.584;7.032;2023-03-01T03:51:12;9.83;;;4.70;;
6101;SDS011;3081;50.584;7.032;2023-03-01T03:53:41;15.77;;;6.80;;
6101;SDS011;3081;50.584;7.032;2023-03-01T03:56:08;11.73;;;6.20;;
6101;SDS011;3081;50.584;7.032;2023-03-01T03:58:35;11.43;;;5.60;;
6101;SDS011;3081;50.584;7.032;2023-03-01T04:01:03;11.87;;;5.40;;
6101;SDS011;3081;50.584;7.032;2023-03-01T04:03:31;12.00;;;5.47;;
6101;SDS011;3081;50.584;7.032;2023-03-01T04:06:00;14.00;;;6.53;;
6101;SDS011;3081;50.584;7.032;2023-03-01T04:08:30;14.93;;;5.10;;
6101;SDS011;3081;50.584;7.032;2023-03-01T04:10:58;9.03;;;5.30;;
6101;SDS011;3081;50.584;7.032;2023-03-01T04:13:46;12.23;;;5.50;;
6101;SDS011;3081;50.584;7.032;2023-03-01T04:16:13;10.40;;;4.77;;
6101;SDS011;3081;50.584;7.032;2023-03-01T04:18:40;13.23;;;5.77;;
6101;SDS011;3081;50.584;7.032;2023-03-01T04:21:07;11.70;;;5.80;;
6101;SDS011;3081;50.584;7.032;2023-03-01T04:23:35;12.80;;;5.40;;
6101;SDS011;3081;50.584;7.032;2023-03-01T04:26:02;13.87;;;6.30;;
6101;SDS011;3081;50.584;7.032;2023-03-01T04:28:30;10.80;;;5.20;;
6101;SDS011;3081;50.584;7.032;2023-03-01T04:31:02;10.83;;;6.30;;
6101;SDS011;3081;50.584;7.032;2023-03-01T04:33:37;13.50;;;6.33;;
6101;SDS011;3081;50.584;7.032;2023-03-01T04:36:05;13.30;;;6.70;;
6101;SDS011;3081;50.584;7.032;2023-03-01T04:38:33;12.40;;;6.50;;
6101;SDS011;3081;50.584;7.032;2023-03-01T04:41:03;12.20;;;6.43;;
6101;SDS011;3081;50.584;7.032;2023-03-01T04:43:30;12.67;;;6.47;;
6101;SDS011;3081;50.584;7.032;2023-03-01T04:46:02;14.03;;;6.40;;
6101;SDS011;3081;50.584;7.032;2023-03-01T04:48:31;12.53;;;6.73;;
6101;SDS011;3081;50.584;7.032;2023-03-01T04:50:58;13.00;;;6.90;;
6101;SDS011;3081;50.584;7.032;2023-03-01T04:53:25;13.17;;;6.67;;
6101;SDS011;3081;50.584;7.032;2023-03-01T04:55:55;14.30;;;6.50;;
6101;SDS011;3081;50.584;7.032;2023-03-01T04:58:22;14.27;;;6.50;;
6101;SDS011;3081;50.584;7.032;2023-03-01T05:00:50;19.73;;;6.57;;
6101;SDS011;3081;50.584;7.032;2023-03-01T05:03:17;16.83;;;7.90;;
6101;SDS011;3081;50.584;7.032;2023-03-01T05:05:45;14.17;;;6.53;;
6101;SDS011;3081;50.584;7.032;2023-03-01T05:08:14;11.10;;;6.23;;
6101;SDS011;3081;50.584;7.032;2023-03-01T05:10:43;13.63;;;6.90;;
6101;SDS011;3081;50.584;7.032;2023-03-01T05:13:13;13.30;;;6.93;;
6101;SDS011;3081;50.584;7.032;2023-03-01T05:15:46;14.57;;;7.33;;
6101;SDS011;3081;50.584;7.032;2023-03-01T05:18:13;16.60;;;7.20;;
6101;SDS011;3081;50.584;7.032;2023-03-01T05:20:40;12.40;;;6.77;;
6101;SDS011;3081;50.584;7.032;2023-03-01T05:23:07;11.70;;;6.20;;
6101;SDS011;3081;50.584;7.032;2023-03-01T05:25:34;16.50;;;7.43;;
6101;SDS011;3081;50.584;7.032;2023-03-01T05:28:05;12.77;;;7.50;;
6101;SDS011;3081;50.584;7.032;2023-03-01T05:30:34;16.27;;;7.37;;
6101;SDS011;3081;50.584;7.032;2023-03-01T05:33:01;13.00;;;6.80;;
6101;SDS011;3081;50.584;7.032;2023-03-01T05:35:28;13.57;;;6.90;;
6101;SDS011;3081;50.584;7.032;2023-03-01T05:37:57;15.67;;;7.30;;
6101;SDS011;3081;50.584;7.032;2023-03-01T05:40:24;17.13;;;8.70;;
6101;SDS011;3081;50.584;7.032;2023-03-01T05:42:52;14.57;;;7.20;;
6101;SDS011;3081;50.584;7.032;2023-03-01T05:45:20;26.40;;;10.90;;
6101;SDS011;3081;50.584;7.032;2023-03-01T05:47:50;29.47;;;12.00;;
6101;SDS011;3081;50.584;7.032;2023-03-01T05:50:17;11.47;;;7.00;;
6101;SDS011;3081;50.584;7.032;2023-03-01T05:52:46;18.53;;;9.07;;
6101;SDS011;3081;50.584;7.032;2023-03-01T05:55:14;11.70;;;5.83;;
6101;SDS011;3081;50.584;7.032;2023-03-01T05:57:42;16.37;;;7.83;;
6101;SDS011;3081;50.584;7.032;2023-03-01T06:00:10;15.67;;;8.17;;
6101;SDS011;3081;50.584;7.032;2023-03-01T06:02:39;13.47;;;7.23;;
6101;SDS011;3081;50.584;7.032;2023-03-01T06:05:08;13.20;;;6.60;;
6101;SDS011;3081;50.584;7.032;2023-03-01T06:07:36;16.90;;;7.17;;
6101;SDS011;3081;50.584;7.032;2023-03-01T06:10:04;14.10;;;6.87;;
6101;SDS011;3081;50.584;7.032;2023-03-01T06:12:31;14.10;;;7.27;;
6101;SDS011;3081;50.584;7.032;2023-03-01T06:14:59;15.80;;;9.73;;
6101;SDS011;3081;50.584;7.032;2023-03-01T06:17:28;26.70;;;13.10;;
6101;SDS011;3081;50.584;7.032;2023-03-01T06:19:56;16.10;;;7.83;;
6101;SDS011;3081;50.584;7.032;2023-03-01T06:22:24;15.73;;;7.83;;
6101;SDS011;3081;50.584;7.032;2023-03-01T06:24:51;15.70;;;6.70;;
6101;SDS011;3081;50.584;7.032;2023-03-01T06:27:18;16.70;;;8.50;;
6101;SDS011;3081;50.584;7.032;2023-03-01T06:29:45;12.50;;;7.90;;
6101;SDS011;3081;50.584;7.032;2023-03-01T06:32:12;21.10;;;10.10;;
6101;SDS011;3081;50.584;7.032;2023-03-01T06:34:39;16.37;;;7.33;;
6101;SDS011;3081;50.584;7.032;2023-03-01T06:37:06;16.57;;;8.83;;
6101;SDS011;3081;50.584;7.032;2023-03-01T06:39:35;15.10;;;7.40;;
6101;SDS011;3081;50.584;7.032;2023-03-01T06:42:02;11.53;;;6.60;;
6101;SDS011;3081;50.584;7.032;2023-03-01T06:44:29;11.97;;;6.43;;
6101;SDS011;3081;50.584;7.032;2023-03-01T06:46:57;15.03;;;8.37;;
6101;SDS011;3081;50.584;7.032;2023-03-01T06:49:24;14.43;;;8.47;;
6101;SDS011;3081;50.584;7.032;2023-03-01T06:51:51;15.83;;;9.47;;
6101;SDS011;3081;50.584;7.032;2023-03-01T06:54:18;17.33;;;9.23;;
6101;SDS011;3081;50.584;7.032;2023-03-01T06:56:48;18.20;;;8.50;;
6101;SDS011;3081;50.584;7.032;2023-03-01T06:59:16;23.27;;;9.33;;
6101;SDS011;3081;50.584;7.032;2023-03-01T07:01:44;17.10;;;8.47;;
6101;SDS011;3081;50.584;7.032;2023-03-01T07:04:11;15.90;;;9.30;;
6101;SDS011;3081;50.584;7.032;2023-03-01T07:06:38;15.00;;;8.30;;
6101;SDS011;3081;50.584;7.032;2023-03-01T07:09:06;14.60;;;8.00;;
6101;SDS011;3081;50.584;7.032;2023-03-01T07:11:33;19.00;;;9.50;;
6101;SDS011;3081;50.584;7.032;2023-03-01T07:14:01;18.10;;;8.53;;
6101;SDS011;3081;50.584;7.032;2023-03-01T07:16:28;15.93;;;8.50;;
6101;SDS011;3081;50.584;7.032;2023-03-01T07:18:55;14.90;;;7.37;;
6101;SDS011;3081;50.584;7.032;2023-03-01T07:21:22;16.57;;;8.77;;
6101;SDS011;3081;50.584;7.032;2023-03-01T07:23:49;16.60;;;8.60;;
6101;SDS011;3081;50.584;7.032;2023-03-01T07:26:15;13.27;;;7.00;;
6101;SDS011;3081;50.584;7.032;2023-03-01T07:28:42;19.03;;;8.90;;
6101;SDS011;3081;50.584;7.032;2023-03-01T07:31:11;12.77;;;6.83;;
6101;SDS011;3081;50.584;7.032;2023-03-01T07:33:37;11.47;;;6.07;;
6101;SDS011;3081;50.584;7.032;2023-03-01T07:36:05;17.57;;;9.10;;
6101;SDS011;3081;50.584;7.032;2023-03-01T07:38:32;15.93;;;8.13;;
6101;SDS011;3081;50.584;7.032;2023-03-01T07:40:59;15.40;;;7.80;;
6101;SDS011;3081;50.584;7.032;2023-03-01T07:43:27;17.43;;;8.77;;
6101;SDS011;3081;50.584;7.032;2023-03-01T07:45:57;15.10;;;8.23;;
6101;SDS011;3081;50.584;7.032;2023-03-01T07:48:26;16.50;;;8.37;;
6101;SDS011;3081;50.584;7.032;2023-03-01T07:50:53;18.30;;;8.50;;
6101;SDS011;3081;50.584;7.032;2023-03-01T07:53:20;15.73;;;8.83;;
6101;SDS011;3081;50.584;7.032;2023-03-01T07:55:46;16.10;;;8.40;;
6101;SDS011;3081;50.584;7.032;2023-03-01T07:58:13;19.87;;;8.90;;
6101;SDS011;3081;50.584;7.032;2023-03-01T08:00:40;17.30;;;8.53;;
6101;SDS011;3081;50.584;7.032;2023-03-01T08:03:07;19.93;;;8.67;;
6101;SDS011;3081;50.584;7.032;2023-03-01T08:05:36;19.53;;;9.03;;
6101;SDS011;3081;50.584;7.032;2023-03-01T08:08:03;18.57;;;10.03;;
6101;SDS011;3081;50.584;7.032;2023-03-01T08:10:31;19.77;;;9.40;;
6101;SDS011;3081;50.584;7.032;2023-03-01T08:12:58;22.20;;;9.43;;
6101;SDS011;3081;50.584;7.032;2023-03-01T08:15:24;20.40;;;10.27;;
6101;SDS011;3081;50.584;7.032;2023-03-01T08:17:51;22.10;;;9.50;;
6101;SDS011;3081;50.584;7.032;2023-03-01T08:20:18;26.70;;;11.13;;
6101;SDS011;3081;50.584;7.032;2023-03-01T08:22:47;19.03;;;9.13;;
6101;SDS011;3081;50.584;7.032;2023-03-01T08:25:14;18.83;;;10.00;;
6101;SDS011;3081;50.584;7.032;2023-03-01T08:27:41;22.40;;;9.43;;
6101;SDS011;3081;50.584;7.032;2023-03-01T08:30:08;20.63;;;9.97;;
6101;SDS011;3081;50.584;7.032;2023-03-01T08:32:36;18.43;;;9.10;;
6101;SDS011;3081;50.584;7.032;2023-03-01T08:35:04;21.87;;;10.83;;
6101;SDS011;3081;50.584;7.032;2023-03-01T08:37:31;18.77;;;10.10;;
6101;SDS011;3081;50.584;7.032;2023-03-01T08:40:00;35.30;;;12.23;;
6101;SDS011;3081;50.584;7.032;2023-03-01T08:42:28;21.03;;;10.87;;
6101;SDS011;3081;50.584;7.032;2023-03-01T08:44:55;29.13;;;14.60;;
6101;SDS011;3081;50.584;7.032;2023-03-01T08:47:22;32.33;;;12.27;;
6101;SDS011;3081;50.584;7.032;2023-03-01T08:49:49;23.70;;;10.97;;
6101;SDS011;3081;50.584;7.032;2023-03-01T08:52:17;27.50;;;10.47;;
6101;SDS011;3081;50.584;7.032;2023-03-01T08:54:45;59.40;;;14.80;;
6101;SDS011;3081;50.584;7.032;2023-03-01T08:57:15;40.30;;;13.87;;
6101;SDS011;3081;50.584;7.032;2023-03-01T08:59:42;61.50;;;14.17;;
6101;SDS011;3081;50.584;7.032;2023-03-01T09:02:11;80.70;;;16.83;;
6101;SDS011;3081;50.584;7.032;2023-03-01T09:04:40;24.87;;;13.67;;
6101;SDS011;3081;50.584;7.032;2023-03-01T09:07:07;31.27;;;13.70;;
6101;SDS011;3081;50.584;7.032;2023-03-01T09:09:34;41.97;;;15.30;;
6101;SDS011;3081;50.584;7.032;2023-03-01T09:12:02;42.00;;;20.47;;
6101;SDS011;3081;50.584;7.032;2023-03-01T09:14:30;39.60;;;13.60;;
6101;SDS011;3081;50.584;7.032;2023-03-01T09:16:57;36.40;;;14.20;;
6101;SDS011;3081;50.584;7.032;2023-03-01T09:19:27;37.53;;;15.93;;
6101;SDS011;3081;50.584;7.032;2023-03-01T09:21:54;35.63;;;12.30;;
6101;SDS011;3081;50.584;7.032;2023-03-01T09:24:23;26.70;;;12.53;;
6101;SDS011;3081;50.584;7.032;2023-03-01T09:26:52;23.17;;;12.33;;
6101;SDS011;3081;50.584;7.032;2023-03-01T09:29:20;21.80;;;11.57;;
6101;SDS011;3081;50.584;7.032;2023-03-01T09:31:48;22.90;;;11.70;;
6101;SDS011;3081;50.584;7.032;2023-03-01T09:34:15;47.00;;;14.57;;
6101;SDS011;3081;50.584;7.032;2023-03-01T09:36:48;32.47;;;13.00;;
6101;SDS011;3081;50.584;7.032;2023-03-01T09:39:15;30.97;;;12.40;;
6101;SDS011;3081;50.584;7.032;2023-03-01T09:41:44;34.67;;;12.17;;
6101;SDS011;3081;50.584;7.032;2023-03-01T09:44:24;27.40;;;12.33;;
6101;SDS011;3081;50.584;7.032;2023-03-01T09:47:01;24.50;;;11.63;;
6101;SDS011;3081;50.584;7.032;2023-03-01T09:49:29;30.03;;;12.77;;
6101;SDS011;3081;50.584;7.032;2023-03-01T09:52:00;26.70;;;14.00;;
6101;SDS011;3081;50.584;7.032;2023-03-01T09:54:46;25.67;;;13.00;;
6101;SDS011;3081;50.584;7.032;2023-03-01T09:57:17;22.67;;;12.23;;
6101;SDS011;3081;50.584;7.032;2023-03-01T10:00:05;26.97;;;13.10;;
6101;SDS011;3081;50.584;7.032;2023-03-01T10:02:45;28.70;;;12.20;;
6101;SDS011;3081;50.584;7.032;2023-03-01T10:05:19;23.00;;;13.07;;
6101;SDS011;3081;50.584;7.032;2023-03-01T10:07:58;36.30;;;14.40;;
6101;SDS011;3081;50.584;7.032;2023-03-01T10:10:43;25.90;;;13.33;;
6101;SDS011;3081;50.584;7.032;2023-03-01T10:13:13;22.53;;;12.40;;
6101;SDS011;3081;50.584;7.032;2023-03-01T10:15:44;40.20;;;13.70;;
6101;SDS011;3081;50.584;7.032;2023-03-01T10:18:22;23.40;;;13.10;;
6101;SDS011;3081;50.584;7.032;2023-03-01T10:20:53;51.30;;;14.03;;
6101;SDS011;3081;50.584;7.032;2023-03-01T10:23:22;24.47;;;13.90;;
6101;SDS011;3081;50.584;7.032;2023-03-01T10:26:06;31.50;;;14.17;;
6101;SDS011;3081;50.584;7.032;2023-03-01T10:28:42;31.00;;;14.17;;
6101;SDS011;3081;50.584;7.032;2023-03-01T10:31:18;29.13;;;14.83;;
6101;SDS011;3081;50.584;7.032;2023-03-01T10:33:52;34.40;;;15.00;;
6101;SDS011;3081;50.584;7.032;2023-03-01T10:36:21;23.00;;;13.27;;
6101;SDS011;3081;50.584;7.032;2023-03-01T10:38:49;25.10;;;11.73;;
6101;SDS011;3081;50.584;7.032;2023-03-01T10:41:19;26.60;;;12.10;;
6101;SDS011;3081;50.584;7.032;2023-03-01T10:43:49;27.03;;;13.60;;
6101;SDS011;3081;50.584;7.032;2023-03-01T10:46:25;28.70;;;14.10;;
6101;SDS011;3081;50.584;7.032;2023-03-01T10:49:07;32.63;;;13.70;;
6101;SDS011;3081;50.584;7.032;2023-03-01T10:51:40;33.10;;;14.30;;
6101;SDS011;3081;50.584;7.032;2023-03-01T10:54:15;26.77;;;13.50;;
6101;SDS011;3081;50.584;7.032;2023-03-01T10:56:47;30.27;;;13.40;;
6101;SDS011;3081;50.584;7.032;2023-03-01T10:59:22;25.13;;;11.97;;
6101;SDS011;3081;50.584;7.032;2023-03-01T11:04:52;37.43;;;18.90;;
6101;SDS011;3081;50.584;7.032;2023-03-01T11:07:23;28.83;;;14.00;;
6101;SDS011;3081;50.584;7.032;2023-03-01T11:09:51;27.47;;;13.60;;
6101;SDS011;3081;50.584;7.032;2023-03-01T11:12:19;43.00;;;14.77;;
6101;SDS011;3081;50.584;7.032;2023-03-01T11:14:47;22.60;;;12.47;;
6101;SDS011;3081;50.584;7.032;2023-03-01T11:17:17;23.53;;;13.03;;
6101;SDS011;3081;50.584;7.032;2023-03-01T11:20:00;29.50;;;13.80;;
6101;SDS011;3081;50.584;7.032;2023-03-01T11:22:31;23.67;;;13.23;;
6101;SDS011;3081;50.584;7.032;2023-03-01T11:25:00;49.70;;;15.57;;
6101;SDS011;3081;50.584;7.032;2023-03-01T11:27:29;22.87;;;12.70;;
6101;SDS011;3081;50.584;7.032;2023-03-01T11:29:59;53.63;;;15.43;;
6101;SDS011;3081;50.584;7.032;2023-03-01T11:32:33;23.77;;;13.30;;
6101;SDS011;3081;50.584;7.032;2023-03-01T11:35:08;27.63;;;12.67;;
6101;SDS011;3081;50.584;7.032;2023-03-01T11:37:40;27.20;;;14.17;;
6101;SDS011;3081;50.584;7.032;2023-03-01T11:40:13;26.07;;;13.57;;
6101;SDS011;3081;50.584;7.032;2023-03-01T11:42:51;24.83;;;13.37;;
6101;SDS011;3081;50.584;7.032;2023-03-01T11:45:26;31.65;;;14.68;;
6101;SDS011;3081;50.584;7.032;2023-03-01T11:48:02;26.93;;;14.30;;
6101;SDS011;3081;50.584;7.032;2023-03-01T11:50:49;30.70;;;13.30;;
6101;SDS011;3081;50.584;7.032;2023-03-01T11:53:24;22.90;;;11.23;;
6101;SDS011;3081;50.584;7.032;2023-03-01T11:56:05;20.87;;;12.00;;
6101;SDS011;3081;50.584;7.032;2023-03-01T11:58:59;22.00;;;11.60;;
6101;SDS011;3081;50.584;7.032;2023-03-01T12:01:40;23.57;;;12.10;;
6101;SDS011;3081;50.584;7.032;2023-03-01T12:04:32;25.60;;;12.30;;
6101;SDS011;3081;50.584;7.032;2023-03-01T12:07:20;26.67;;;12.90;;
6101;SDS011;3081;50.584;7.032;2023-03-01T12:10:13;24.37;;;12.00;;
6101;SDS011;3081;50.584;7.032;2023-03-01T12:12:52;28.40;;;11.30;;
6101;SDS011;3081;50.584;7.032;2023-03-01T12:15:37;23.03;;;12.50;;
6101;SDS011;3081;50.584;7.032;2023-03-01T12:21:14;28.17;;;11.60;;
6101;SDS011;3081;50.584;7.032;2023-03-01T12:24:12;27.33;;;12.73;;
6101;SDS011;3081;50.584;7.032;2023-03-01T12:26:57;22.40;;;12.07;;
6101;SDS011;3081;50.584;7.032;2023-03-01T12:29:36;22.03;;;11.90;;
6101;SDS011;3081;50.584;7.032;2023-03-01T12:32:13;20.90;;;12.40;;
6101;SDS011;3081;50.584;7.032;2023-03-01T12:37:51;30.20;;;13.43;;
6101;SDS011;3081;50.584;7.032;2023-03-01T12:40:43;23.57;;;12.47;;
6101;SDS011;3081;50.584;7.032;2023-03-01T12:43:22;27.67;;;11.47;;
6101;SDS011;3081;50.584;7.032;2023-03-01T12:46:04;25.00;;;11.50;;
6101;SDS011;3081;50.584;7.032;2023-03-01T12:48:40;26.77;;;16.97;;
6101;SDS011;3081;50.584;7.032;2023-03-01T12:51:13;18.87;;;10.87;;
6101;SDS011;3081;50.584;7.032;2023-03-01T12:53:42;20.00;;;11.03;;
6101;SDS011;3081;50.584;7.032;2023-03-01T12:56:15;19.17;;;10.53;;
6101;SDS011;3081;50.584;7.032;2023-03-01T12:58:48;18.77;;;10.63;;
6101;SDS011;3081;50.584;7.032;2023-03-01T13:01:22;29.70;;;10.90;;
6101;SDS011;3081;50.584;7.032;2023-03-01T13:04:02;18.93;;;9.73;;
6101;SDS011;3081;50.584;7.032;2023-03-01T13:06:47;25.80;;;11.17;;
6101;SDS011;3081;50.584;7.032;2023-03-01T13:09:26;24.37;;;13.80;;
6101;SDS011;3081;50.584;7.032;2023-03-01T13:12:02;16.80;;;8.80;;
6101;SDS011;3081;50.584;7.032;2023-03-01T13:17:30;18.13;;;9.77;;
6101;SDS011;3081;50.584;7.032;2023-03-01T13:19:58;25.47;;;9.00;;
6101;SDS011;3081;50.584;7.032;2023-03-01T13:22:27;18.97;;;9.00;;
6101;SDS011;3081;50.584;7.032;2023-03-01T13:27:46;18.60;;;9.73;;
6101;SDS011;3081;50.584;7.032;2023-03-01T13:36:08;33.40;;;14.77;;
6101;SDS011;3081;50.584;7.032;2023-03-01T13:38:45;18.10;;;7.47;;
6101;SDS011;3081;50.584;7.032;2023-03-01T13:41:13;27.10;;;14.60;;
6101;SDS011;3081;50.584;7.032;2023-03-01T13:43:42;20.33;;;8.40;;
6101;SDS011;3081;50.584;7.032;2023-03-01T13:46:11;15.43;;;8.00;;
6101;SDS011;3081;50.584;7.032;2023-03-01T13:48:44;23.73;;;12.67;;
6101;SDS011;3081;50.584;7.032;2023-03-01T13:51:15;27.43;;;13.40;;
6101;SDS011;3081;50.584;7.032;2023-03-01T13:53:42;19.30;;;8.40;;
6101;SDS011;3081;50.584;7.032;2023-03-01T13:56:13;20.77;;;8.90;;
6101;SDS011;3081;50.584;7.032;2023-03-01T13:58:46;41.70;;;15.10;;
6101;SDS011;3081;50.584;7.032;2023-03-01T14:01:23;20.67;;;7.13;;
6101;SDS011;3081;50.584;7.032;2023-03-01T14:03:52;29.23;;;14.57;;
6101;SDS011;3081;50.584;7.032;2023-03-01T14:06:21;27.73;;;18.33;;
6101;SDS011;3081;50.584;7.032;2023-03-01T14:08:49;15.83;;;6.13;;
6101;SDS011;3081;50.584;7.032;2023-03-01T14:11:25;19.37;;;7.43;;
6101;SDS011;3081;50.584;7.032;2023-03-01T14:14:25;13.53;;;6.00;;
6101;SDS011;3081;50.584;7.032;2023-03-01T14:17:08;19.97;;;9.23;;
6101;SDS011;3081;50.584;7.032;2023-03-01T14:19:59;17.83;;;9.30;;
6101;SDS011;3081;50.584;7.032;2023-03-01T14:22:30;21.00;;;9.30;;
6101;SDS011;3081;50.584;7.032;2023-03-01T14:25:02;16.10;;;8.03;;
6101;SDS011;3081;50.584;7.032;2023-03-01T14:27:33;14.07;;;7.63;;
6101;SDS011;3081;50.584;7.032;2023-03-01T14:30:12;15.23;;;8.03;;
6101;SDS011;3081;50.584;7.032;2023-03-01T14:32:48;15.93;;;6.67;;
6101;SDS011;3081;50.584;7.032;2023-03-01T14:35:20;12.77;;;6.40;;
6101;SDS011;3081;50.584;7.032;2023-03-01T14:37:48;14.63;;;6.73;;
6101;SDS011;3081;50.584;7.032;2023-03-01T14:40:25;20.27;;;7.90;;
6101;SDS011;3081;50.584;7.032;2023-03-01T14:42:54;17.60;;;9.17;;
6101;SDS011;3081;50.584;7.032;2023-03-01T14:45:25;14.40;;;8.23;;
6101;SDS011;3081;50.584;7.032;2023-03-01T14:47:55;18.83;;;7.57;;
6101;SDS011;3081;50.584;7.032;2023-03-01T14:50:26;20.35;;;8.70;;
6101;SDS011;3081;50.584;7.032;2023-03-01T14:52:55;18.50;;;8.23;;
6101;SDS011;3081;50.584;7.032;2023-03-01T14:55:25;16.33;;;7.30;;
6101;SDS011;3081;50.584;7.032;2023-03-01T14:57:56;15.50;;;7.63;;
6101;SDS011;3081;50.584;7.032;2023-03-01T15:00:26;15.33;;;6.10;;
6101;SDS011;3081;50.584;7.032;2023-03-01T15:02:56;14.10;;;8.25;;
6101;SDS011;3081;50.584;7.032;2023-03-01T15:05:27;12.43;;;6.90;;
6101;SDS011;3081;50.584;7.032;2023-03-01T15:07:56;12.63;;;6.93;;
6101;SDS011;3081;50.584;7.032;2023-03-01T15:10:25;12.90;;;6.70;;
6101;SDS011;3081;50.584;7.032;2023-03-01T15:12:53;14.83;;;6.90;;
6101;SDS011;3081;50.584;7.032;2023-03-01T15:15:33;14.03;;;6.33;;
6101;SDS011;3081;50.584;7.032;2023-03-01T15:18:03;19.73;;;6.90;;
6101;SDS011;3081;50.584;7.032;2023-03-01T15:20:32;17.43;;;7.40;;
6101;SDS011;3081;50.584;7.032;2023-03-01T15:23:03;13.40;;;6.87;;
6101;SDS011;3081;50.584;7.032;2023-03-01T15:25:30;15.40;;;6.97;;
6101;SDS011;3081;50.584;7.032;2023-03-01T15:27:59;16.93;;;7.00;;
6101;SDS011;3081;50.584;7.032;2023-03-01T15:30:29;12.97;;;6.60;;
6101;SDS011;3081;50.584;7.032;2023-03-01T15:35:55;15.43;;;6.63;;
6101;SDS011;3081;50.584;7.032;2023-03-01T15:38:27;16.47;;;7.10;;
6101;SDS011;3081;50.584;7.032;2023-03-01T15:40:57;17.00;;;7.17;;